• Join FlightAware (Why Join?)
  • Login
  • US Flag 
03:07AM EDT


 

Airport Tracker/Info


-or-


 

Live Flight TrackerFlight Track Log ✈ AAL1326 ✈ 03-May-2013 ✈ KMCI - KORD

Flight Track Log - Related Links

Times and Time Zones

All times are in EDT time to prevent confusion due to time zone crossing. See the AAL1326 flight status page for this flight to view local times or setup timezone preferences in your user account.

Time Position Orientation Groundspeed Altitude Reporting Facility
EDT Latitude Longitude Course Direction KTS MPH feet Rate Location/Type
06:58PM 39.4590 -94.5024 41° Northeast  Level FlightAware Approximate
06:59PM 39.5289 -94.4238 41° Northeast  Level FlightAware Approximate
06:59PM 39.4390 -94.5840 41° Northeast 256 295 7,100  Level FlightAware
06:59PM 39.4660 -94.5470 47° Northeast 268 308 8,400 2,820 Climbing FlightAware
06:59PM 39.4880 -94.5170 46° Northeast 264 304 9,700 2,220 Climbing FlightAware
07:00PM 39.5270 -94.4640 46° Northeast 297 342 11,000 1,800 Climbing FlightAware
07:01PM 39.5670 -94.4080 47° Northeast 325 374 12,300 1,860 Climbing FlightAware
07:02PM 39.6120 -94.3500 45° Northeast 356 410 13,500 2,100 Climbing FlightAware
07:02PM 39.6690 -94.2820 43° Northeast 374 430 15,300 2,460 Climbing FlightAware
07:03PM 39.7220 -94.2210 42° Northeast 386 444 17,000 1,560 Climbing FlightAware
07:04PM 39.7920 -94.1470 39° Northeast 396 456 17,800 2,280 Climbing FlightAware
07:05PM 39.8740 -94.0600 39° Northeast 411 473 21,000 3,000 Climbing FlightAware
07:06PM 39.9470 -93.9870 37° Northeast 418 481 22,800 1,740 Climbing FlightAware
07:06PM 40.0280 -93.8890 43° Northeast 428 493 24,100 1,380 Climbing FlightAware
07:07PM 40.0780 -93.8120 50° Northeast 438 504 25,000 960 Climbing FlightAware
07:08PM 40.1390 -93.7210 49° Northeast 437 503 25,500 1,260 Climbing FlightAware
07:09PM 40.1920 -93.6440 48° Northeast 438 504 26,800 2,280 Climbing FlightAware
07:09PM 40.2540 -93.5550 48° Northeast 421 484 28,800 2,400 Climbing FlightAware
07:10PM 40.3060 -93.4800 48° Northeast 414 476 30,200 1,860 Climbing FlightAware
07:10PM 40.3320 -93.4160 62° Northeast 389 448 31,000 1,260 Climbing FlightAware
07:11PM 40.3460 -93.3260 78° East 383 441 31,700 1,200 Climbing FlightAware
07:12PM 40.3570 -93.2340 81° East 385 443 32,600 780 Climbing FlightAware
07:13PM 40.3710 -93.1100 82° East 384 442 33,000 240 Climbing FlightAware
07:13PM 40.3830 -93.0030 82° East 382 440 33,000  Level FlightAware
07:14PM 40.3920 -92.9200 82° East 381 438 33,000  Level FlightAware
07:15PM 40.4050 -92.8130 81° East 379 436 33,000  Level FlightAware
07:15PM 40.4130 -92.7370 82° East 379 436 33,000  Level FlightAware
07:16PM 40.4230 -92.6450 82° East 378 435 33,000  Level FlightAware
07:17PM 40.4360 -92.5270 82° East 377 434 33,000  Level FlightAware
07:18PM 40.4450 -92.4430 82° East 377 434 33,000  Level FlightAware
07:18PM 40.4550 -92.3560 81° East 378 435 33,000  Level FlightAware
07:19PM 40.4670 -92.2430 82° East 379 436 33,000  Level FlightAware
07:20PM 40.4750 -92.1650 82° East 380 437 33,000  Level FlightAware
07:20PM 40.4870 -92.0510 82° East 381 438 33,000  Level FlightAware
07:21PM 40.4970 -91.9580 82° East 382 440 33,000  Level FlightAware
07:22PM 40.5070 -91.8620 82° East 384 442 33,000  Level FlightAware
07:23PM 40.5170 -91.7650 82° East 401 461 33,000  Level FlightAware
07:23PM 40.5280 -91.6530 83° East 413 475 33,000  Level FlightAware
07:24PM 40.5380 -91.5610 82° East 414 476 33,000  Level FlightAware
07:25PM 40.5490 -91.4470 83° East 417 480 33,000  Level FlightAware
07:25PM 40.5730 -91.3470 72° East 433 498 33,000  Level FlightAware
07:26PM 40.6080 -91.2440 66° East 435 501 33,000  Level FlightAware
07:27PM 40.6450 -91.1360 66° East 435 501 33,000  Level FlightAware
07:27PM 40.6760 -91.0450 66° East 435 501 33,000  Level FlightAware
07:28PM 40.7110 -90.9430 66° East 435 501 33,000  Level FlightAware
07:29PM 40.7480 -90.8340 66° East 436 502 33,000  Level FlightAware
07:30PM 40.7800 -90.7400 66° East 436 502 33,000  Level FlightAware
07:30PM 40.8180 -90.6250 66° East 437 503 33,000  Level FlightAware
07:31PM 40.8510 -90.5280 66° East 420 483 33,000  Level FlightAware
07:32PM 40.8810 -90.4360 67° East 419 482 33,000  Level FlightAware
07:32PM 40.9170 -90.3280 66° East 419 482 33,000  Level FlightAware
07:33PM 40.9490 -90.2340 66° East 419 482 33,000  Level FlightAware
07:34PM 40.9770 -90.1490 66° East 420 483 33,000 -600 Level FlightAware
07:34PM 41.0120 -90.0420 67° East 419 482 32,200 -1,980 Descending FlightAware
07:35PM 41.0400 -89.9550 67° East 425 489 30,400 -2,940 Descending FlightAware
07:36PM 41.0880 -89.8100 66° East 427 491 27,600 -2,580 Descending FlightAware
07:37PM 41.1220 -89.7040 67° East 421 484 25,900 -2,280 Descending FlightAware
07:37PM 41.1530 -89.6100 66° East 415 478 24,400 -2,220 Descending FlightAware
07:38PM 41.1920 -89.5070 63° Northeast 407 468 22,800 -2,100 Descending FlightAware
07:39PM 41.2280 -89.4190 61° Northeast 400 460 21,500 -1,920 Descending FlightAware
07:40PM 41.2660 -89.3260 61° Northeast 395 455 20,100 -2,160 Descending FlightAware
07:40PM 41.3060 -89.2250 62° Northeast 395 455 18,300 -2,220 Descending FlightAware
07:41PM 41.3390 -89.1420 62° Northeast 369 425 17,000 -2,280 Descending FlightAware
07:42PM 41.3700 -89.0640 62° Northeast 365 420 15,300 -2,280 Descending FlightAware
07:42PM 41.4060 -88.9760 61° Northeast 355 409 13,800 -1,980 Descending FlightAware
07:43PM 41.4360 -88.9010 62° Northeast 346 398 12,500 -1,980 Descending FlightAware
07:44PM 41.4620 -88.8120 69° East 333 383 11,000 -1,140 Descending FlightAware
07:45PM 41.4680 -88.7360 84° East 287 330 10,900 -120 Descending FlightAware
07:45PM 41.4750 -88.6720 82° East 249 287 10,900 60 Level FlightAware
07:45PM 41.4820 -88.6520 65° Northeast 248 285 11,000 60 Climbing FlightAware
07:46PM 41.5160 -88.5980 50° Northeast 248 285 11,000  Level FlightAware
07:47PM 41.5450 -88.5520 50° Northeast 245 282 11,000 -120 Level FlightAware
07:48PM 41.5730 -88.5090 49° Northeast 213 245 10,900 -780 Descending FlightAware
07:48PM 41.6010 -88.4650 50° Northeast 210 242 9,900 -1,320 Descending FlightAware
07:49PM 41.6180 -88.4400 48° Northeast 210 242 9,400 -1,200 Descending FlightAware
07:49PM 41.6360 -88.4110 50° Northeast 208 239 8,800 -1,200 Descending FlightAware
07:50PM 41.6550 -88.3810 50° Northeast 207 238 8,200 -900 Descending FlightAware
07:50PM 41.6700 -88.3580 49° Northeast 207 238 8,000 -240 Descending FlightAware
07:51PM 41.6860 -88.3340 48° Northeast 205 236 8,000 -240 Level FlightAware
07:51PM 41.7080 -88.3090 40° Northeast 220 253 7,800 -780 Descending FlightAware
07:51PM 41.7190 -88.3070 North 226 260 7,500 -1,020 Descending FlightAware
07:52PM 41.7380 -88.3100 353° North 220 253 7,300 -600 Descending FlightAware
07:52PM 41.7680 -88.3140 354° North 207 238 7,000 -360 Descending FlightAware
07:52PM 41.7910 -88.3180 353° North 203 234 7,000  Level FlightAware
07:53PM 41.8200 -88.3220 354° North 204 235 7,000 -240 Level FlightAware
07:53PM 41.8410 -88.3250 354° North 204 235 6,800 -1,020 Descending FlightAware
07:54PM 41.8680 -88.3410 336° Northwest 207 238 6,100 -1,200 Descending FlightAware
07:54PM 41.8730 -88.3560 294° West 200 230 5,900 -300 Descending FlightAware
07:55PM 41.8790 -88.3890 284° West 200 230 5,900  Level FlightAware
07:55PM 41.8860 -88.4210 286° West 200 230 5,900  Level FlightAware
07:56PM 41.8900 -88.4620 277° West 194 223 5,900  Level FlightAware
07:56PM 41.8990 -88.4830 300° West 207 238 5,900  Level FlightAware
07:56PM 41.9170 -88.4900 344° North 204 235 5,900  Level FlightAware
07:57PM 41.9480 -88.4750 20° North 175 201 5,900 -300 Level FlightAware
07:57PM 41.9610 -88.4480 57° Northeast 173 199 5,600 -840 Descending FlightAware
07:58PM 41.9640 -88.4340 74° East 159 183 5,300 -1,080 Descending FlightAware
07:58PM 41.9670 -88.4090 81° East 155 178 4,900 -480 Descending FlightAware
07:58PM 41.9680 -88.3890 86° East 153 176 4,900  Level FlightAware
07:59PM 41.9670 -88.3520 92° East 154 177 4,900  Level FlightAware
08:00PM 41.9670 -88.3210 90° East 155 178 4,900  Level FlightAware
08:00PM 41.9680 -88.2910 87° East 155 178 4,900  Level FlightAware
08:00PM 41.9680 -88.2710 90° East 156 180 4,900  Level FlightAware
08:01PM 41.9680 -88.2320 90° East 154 177 4,900 -300 Level FlightAware
08:02PM 41.9680 -88.2070 90° East 153 176 4,600 -780 Descending FlightAware
08:02PM 41.9680 -88.1800 90° East 151 174 4,200 -780 Descending FlightAware
08:02PM 41.9680 -88.1580 90° East 150 173 3,900 -780 Descending FlightAware
08:03PM 41.9680 -88.1320 90° East 149 171 3,500 -840 Descending FlightAware
08:03PM 41.9690 -88.1010 88° East 145 167 3,100 -780 Descending FlightAware
08:04PM 41.9690 -88.0670 90° East 141 162 2,600 -720 Descending FlightAware
08:05PM 41.9690 -88.0360 90° East 139 160 2,200 -720 Descending FlightAware
08:05PM 41.9690 -88.0150 90° East 131 151 1,900 -840 Descending FlightAware
08:06PM 41.9690 -87.9700 90° East 136 157 1,200 -780 Descending FlightAware
08:06PM 41.9690 -87.9480 90° East 144 166 900 -660 Descending FlightAware
08:07PM 41.9690 -87.9220 90° East 139 160 600 -360 Descending FlightAware
08:07PM 41.9690 -87.9020 90° East 139 160 600  Level FlightAware